Time;durP1;ratioP1;P1;durP2;ratioP2;P2;SDS_P1;SDS_P2;PMS_P1;PMS_P2;Temp;Humidity;BMP_temperature;BMP_pressure;BME280_temperature;BME280_humidity;BME280_pressure;Samples;Min_cycle;Max_cycle;Signal;HPM_P1;HPM_P2
2021/10/08 00:01:34;;;;;;;22.27;16.70;;;13.40;99.90;;;;;;5046540;28;20446;-87
2021/10/08 00:04:02;;;;;;;19.43;16.67;;;13.30;99.90;;;;;;5060446;28;20427;-88
2021/10/08 00:06:29;;;;;;;21.93;16.47;;;13.20;99.90;;;;;;5060595;28;20447;-88
2021/10/08 00:08:56;;;;;;;24.60;17.77;;;13.10;99.90;;;;;;5060246;28;20474;-87
2021/10/08 00:11:22;;;;;;;21.47;16.60;;;13.00;99.90;;;;;;5053112;28;20447;-88
2021/10/08 00:13:49;;;;;;;21.17;17.03;;;12.90;99.90;;;;;;5040689;28;20452;-87
2021/10/08 00:16:16;;;;;;;19.07;16.83;;;12.90;99.90;;;;;;5044262;28;20454;-87
2021/10/08 00:18:42;;;;;;;20.23;16.77;;;12.90;99.90;;;;;;5057104;28;20494;-87
2021/10/08 00:21:11;;;;;;;23.60;17.57;;;12.80;99.90;;;;;;5059714;28;20446;-87
2021/10/08 00:23:38;;;;;;;25.27;17.60;;;12.90;99.90;;;;;;5059595;28;20440;-87
2021/10/08 00:26:05;;;;;;;24.07;18.00;;;12.90;99.90;;;;;;5058851;28;20485;-87
2021/10/08 00:28:32;;;;;;;26.57;17.30;;;12.00;99.90;;;;;;5059625;28;20494;-87
2021/10/08 00:43:58;;;;;;;24.17;20.30;;;12.50;99.90;;;;;;4859393;26;20462;-92
2021/10/08 00:46:25;;;;;;;23.40;18.43;;;12.40;99.90;;;;;;5030445;28;20451;-93
2021/10/08 00:49:12;;;;;;;24.30;19.57;;;13.30;99.90;;;;;;5029058;28;20440;-90
2021/10/08 00:51:40;;;;;;;26.53;19.87;;;12.40;99.90;;;;;;5028548;28;20491;-92
2021/10/08 00:54:07;;;;;;;31.83;19.03;;;12.40;99.90;;;;;;5032823;28;20498;-94
2021/10/08 00:59:20;;;;;;;27.60;18.80;;;12.40;99.90;;;;;;5262122;22;20459;-91
2021/10/08 01:01:46;;;;;;;24.73;18.47;;;12.30;99.90;;;;;;5038372;28;20888;-91
2021/10/08 01:04:15;;;;;;;27.00;20.70;;;12.30;99.90;;;;;;5044036;28;20459;-93
2021/10/08 01:09:19;;;;;;;21.70;18.60;;;;;;;;;;4276099;26;20451;-92
2021/10/08 01:20:42;;;;;;;26.80;20.17;;;12.20;99.90;;;;;;5347038;22;20442;-91
2021/10/08 01:23:09;;;;;;;25.20;19.40;;;;;;;;;;5060113;28;20427;-94
2021/10/08 01:25:38;;;;;;;26.87;20.43;;;12.20;99.90;;;;;;5060226;28;20399;-92
2021/10/08 01:31:08;;;;;;;23.33;18.60;;;12.00;99.90;;;;;;5056088;28;20477;-93
2021/10/08 01:33:35;;;;;;;24.40;19.27;;;12.20;99.90;;;;;;5053987;22;20499;-86
2021/10/08 01:36:03;;;;;;;26.80;20.13;;;12.20;99.90;;;;;;5041589;28;20521;-87
2021/10/08 01:38:29;;;;;;;28.57;19.40;;;12.10;99.90;;;;;;5050159;28;20475;-85
2021/10/08 01:40:56;;;;;;;25.87;19.93;;;12.10;99.90;;;;;;5050213;28;20418;-86
2021/10/08 01:43:23;;;;;;;28.60;21.17;;;12.10;99.90;;;;;;5050102;28;20467;-86
2021/10/08 01:45:49;;;;;;;26.90;20.50;;;12.00;99.90;;;;;;5055021;28;20439;-85
2021/10/08 01:48:16;;;;;;;27.13;20.17;;;11.90;99.90;;;;;;5055328;28;20467;-85
2021/10/08 01:50:43;;;;;;;29.03;22.60;;;11.90;99.90;;;;;;5047100;28;20443;-86
2021/10/08 01:53:11;;;;;;;30.47;23.00;;;13.60;99.90;;;;;;5039129;28;20499;-86
2021/10/08 01:55:37;;;;;;;26.77;21.20;;;11.90;99.90;;;;;;5038122;28;20513;-86
2021/10/08 01:58:04;;;;;;;27.80;21.40;;;11.90;99.90;;;;;;5037952;28;20949;-86
2021/10/08 02:00:31;;;;;;;28.27;22.67;;;11.90;99.90;;;;;;5038806;28;20483;-86
2021/10/08 02:02:57;;;;;;;26.90;21.00;;;11.80;99.90;;;;;;5045567;28;20462;-85
2021/10/08 02:05:24;;;;;;;26.63;20.30;;;11.80;99.90;;;;;;5053488;28;20440;-85
2021/10/08 02:07:51;;;;;;;30.00;20.43;;;11.80;99.90;;;;;;5046819;28;20800;-85
2021/10/08 02:10:19;;;;;;;28.27;22.50;;;11.80;99.90;;;;;;5035824;28;20505;-86
2021/10/08 02:12:45;;;;;;;28.70;21.20;;;11.80;99.90;;;;;;5035428;28;20813;-86
2021/10/08 02:15:12;;;;;;;29.03;23.00;;;11.90;99.90;;;;;;5035698;28;20546;-86
2021/10/08 02:17:39;;;;;;;27.40;21.37;;;12.00;99.90;;;;;;5038308;28;20451;-86
2021/10/08 02:20:06;;;;;;;31.10;21.87;;;12.00;99.90;;;;;;5039844;28;20959;-86
2021/10/08 02:22:33;;;;;;;30.13;22.90;;;11.90;99.90;;;;;;5036678;28;20463;-87
2021/10/08 02:25:00;;;;;;;25.90;21.40;;;11.90;99.90;;;;;;5037538;28;20454;-86
2021/10/08 02:27:28;;;;;;;34.30;23.80;;;11.90;99.90;;;;;;5037165;28;20447;-87
2021/10/08 02:29:55;;;;;;;38.63;24.80;;;11.90;99.90;;;;;;5037878;28;20444;-86
2021/10/08 02:32:22;;;;;;;34.33;24.97;;;12.00;99.90;;;;;;5037365;28;20457;-86
2021/10/08 02:34:48;;;;;;;37.00;24.30;;;12.00;99.90;;;;;;5035176;28;20478;-86
2021/10/08 02:37:15;;;;;;;34.13;26.23;;;12.00;99.90;;;;;;5035801;28;20447;-86
2021/10/08 02:39:41;;;;;;;36.27;26.47;;;12.00;99.90;;;;;;5037454;28;20462;-86
2021/10/08 02:42:10;;;;;;;37.27;26.73;;;12.00;99.90;;;;;;5038277;28;20467;-86
2021/10/08 02:44:38;;;;;;;37.40;26.30;;;12.00;99.90;;;;;;5037662;28;20518;-86
2021/10/08 02:47:05;;;;;;;39.47;26.20;;;12.00;99.90;;;;;;5038870;28;20505;-86
2021/10/08 02:49:31;;;;;;;34.87;25.20;;;11.90;99.90;;;;;;5039514;28;20458;-85
2021/10/08 02:51:58;;;;;;;38.37;28.17;;;11.90;99.90;;;;;;5053489;28;20467;-85
2021/10/08 02:54:25;;;;;;;36.30;27.60;;;11.90;99.90;;;;;;5055263;28;20443;-85
2021/10/08 02:56:52;;;;;;;38.63;26.57;;;11.90;99.90;;;;;;5046896;28;20478;-86
2021/10/08 02:59:18;;;;;;;38.83;26.80;;;11.90;99.90;;;;;;5037300;28;20451;-86
2021/10/08 03:01:46;;;;;;;40.93;26.90;;;12.00;99.90;;;;;;5035498;28;20525;-86
2021/10/08 03:04:13;;;;;;;36.50;25.80;;;11.90;99.90;;;;;;5038365;28;20446;-86
2021/10/08 03:06:40;;;;;;;37.80;26.80;;;11.90;99.90;;;;;;5042406;28;20503;-86
2021/10/08 03:09:06;;;;;;;37.57;26.10;;;11.80;99.90;;;;;;5042984;28;20805;-86
2021/10/08 03:11:36;;;;;;;41.63;28.10;;;11.80;99.90;;;;;;5047085;28;20477;-85
2021/10/08 03:14:02;;;;;;;39.10;27.97;;;11.80;99.90;;;;;;5053619;28;20445;-85
2021/10/08 03:16:29;;;;;;;40.57;27.30;;;11.80;99.90;;;;;;5053328;28;20509;-85
2021/10/08 03:18:57;;;;;;;43.70;28.23;;;11.80;99.90;;;;;;5051959;28;20447;-85
2021/10/08 03:21:24;;;;;;;46.97;28.97;;;11.70;99.90;;;;;;5050065;28;20447;-85
2021/10/08 03:23:50;;;;;;;36.13;27.40;;;11.70;99.90;;;;;;5048363;28;20463;-86
2021/10/08 03:26:17;;;;;;;46.63;27.53;;;11.70;99.90;;;;;;5052000;28;20450;-86
2021/10/08 03:28:45;;;;;;;38.83;26.13;;;11.60;99.90;;;;;;5056348;28;20466;-85
2021/10/08 03:31:12;;;;;;;35.57;26.30;;;11.60;99.90;;;;;;5056570;28;20429;-87
2021/10/08 03:33:38;;;;;;;38.43;26.20;;;11.60;99.90;;;;;;5052216;28;20467;-86
2021/10/08 03:36:08;;;;;;;40.85;28.05;;;11.70;99.90;;;;;;5043936;28;20457;-86
2021/10/08 03:38:36;;;;;;;42.17;28.30;;;11.70;99.90;;;;;;5046553;28;20219;-86
2021/10/08 03:41:09;;;;;;;44.00;27.90;;;11.50;99.90;;;;;;5061774;28;20438;-86
2021/10/08 03:43:37;;;;;;;37.73;26.70;;;12.70;99.90;;;;;;5061675;28;20493;-89
2021/10/08 03:46:07;;;;;;;36.13;25.33;;;11.70;99.90;;;;;;5061371;28;20427;-86
2021/10/08 03:51:16;;;;;;;38.30;25.53;;;11.50;99.90;;;;;;5043511;28;20447;-86
2021/10/08 03:53:43;;;;;;;42.13;27.77;;;11.60;99.90;;;;;;5058547;28;20473;-86
2021/10/08 03:56:09;;;;;;;37.00;27.50;;;11.60;99.90;;;;;;5058298;28;20486;-85
2021/10/08 03:58:36;;;;;;;41.57;28.90;;;11.40;99.90;;;;;;5056538;28;20426;-87
2021/10/08 04:01:03;;;;;;;43.70;29.67;;;11.50;99.90;;;;;;5054765;28;20447;-86
2021/10/08 04:03:29;;;;;;;41.80;29.73;;;11.50;99.90;;;;;;5045271;28;20494;-86
2021/10/08 04:05:56;;;;;;;48.57;30.07;;;11.60;99.90;;;;;;5043312;28;20482;-86
2021/10/08 04:08:24;;;;;;;46.93;29.83;;;11.60;99.90;;;;;;5043164;28;20477;-86
2021/10/08 04:10:50;;;;;;;49.60;31.00;;;11.60;99.90;;;;;;5041513;28;20478;-87
2021/10/08 04:13:17;;;;;;;44.00;29.60;;;11.60;99.90;;;;;;5040509;28;20475;-86
2021/10/08 04:15:43;;;;;;;50.43;30.37;;;11.60;99.90;;;;;;5041802;28;20489;-86
2021/10/08 04:18:11;;;;;;;45.97;30.83;;;11.60;99.90;;;;;;5040550;28;20443;-86
2021/10/08 04:20:37;;;;;;;42.53;30.07;;;11.40;99.90;;;;;;5039593;28;20443;-86
2021/10/08 04:23:05;;;;;;;46.43;31.30;;;11.40;99.90;;;;;;5039696;28;20827;-86
2021/10/08 04:25:33;;;;;;;45.03;29.43;;;11.40;99.90;;;;;;5039657;28;20422;-86
2021/10/08 04:28:00;;;;;;;47.23;29.40;;;11.40;99.90;;;;;;5021916;28;20426;-86
2021/10/08 04:30:26;;;;;;;41.33;30.87;;;11.50;99.90;;;;;;5039028;28;20470;-86
2021/10/08 04:32:53;;;;;;;45.53;30.33;;;11.50;99.90;;;;;;5039389;28;20508;-87
2021/10/08 04:35:20;;;;;;;42.57;29.03;;;11.50;99.90;;;;;;5039878;28;20927;-86
2021/10/08 04:37:46;;;;;;;46.10;30.30;;;11.50;99.90;;;;;;5043831;28;20504;-86
2021/10/08 04:40:14;;;;;;;46.50;29.40;;;11.40;99.90;;;;;;5042278;28;20441;-86
2021/10/08 04:42:42;;;;;;;45.93;31.60;;;11.40;99.90;;;;;;5040001;28;20505;-85
2021/10/08 04:45:09;;;;;;;53.33;34.90;;;11.40;99.90;;;;;;5041048;28;20447;-86
2021/10/08 04:47:36;;;;;;;43.03;30.57;;;11.40;99.90;;;;;;5042832;28;20433;-86
2021/10/08 04:50:03;;;;;;;51.33;32.37;;;11.40;99.90;;;;;;5046581;28;20445;-85
2021/10/08 04:52:30;;;;;;;69.70;35.70;;;11.40;99.90;;;;;;5058578;28;20451;-85
2021/10/08 04:54:56;;;;;;;48.93;31.07;;;11.10;99.90;;;;;;5058525;28;20467;-88
2021/10/08 04:57:23;;;;;;;44.73;29.63;;;11.20;99.90;;;;;;5053251;28;20471;-85
2021/10/08 04:59:51;;;;;;;50.07;32.40;;;11.30;99.90;;;;;;5058224;28;20446;-87
2021/10/08 05:02:17;;;;;;;52.77;32.27;;;11.10;99.90;;;;;;5057477;28;20447;-87
2021/10/08 05:04:44;;;;;;;43.90;28.73;;;11.10;99.90;;;;;;5053331;28;20447;-87
2021/10/08 05:07:11;;;;;;;45.50;30.57;;;11.00;99.90;;;;;;5058513;28;20533;-86
2021/10/08 05:09:37;;;;;;;43.83;29.73;;;10.90;99.90;;;;;;5058316;28;20423;-86
2021/10/08 05:12:04;;;;;;;48.83;30.50;;;10.90;99.90;;;;;;5057313;28;20463;-85
2021/10/08 05:14:31;;;;;;;47.37;32.40;;;10.80;99.90;;;;;;5053267;28;20428;-87
2021/10/08 05:16:58;;;;;;;54.97;32.23;;;10.80;99.90;;;;;;5047566;28;21028;-86
2021/10/08 05:19:25;;;;;;;48.07;30.43;;;10.80;99.90;;;;;;5041851;28;20516;-87
2021/10/08 05:21:54;;;;;;;51.10;32.97;;;10.60;99.90;;;;;;5044976;28;20429;-87
2021/10/08 05:24:21;;;;;;;44.63;30.60;;;10.80;99.90;;;;;;5055730;28;20447;-88
2021/10/08 05:26:47;;;;;;;46.90;30.30;;;10.70;99.90;;;;;;5053630;28;20406;-88
2021/10/08 05:29:14;;;;;;;46.80;30.00;;;10.70;99.90;;;;;;5052184;28;20423;-87
2021/10/08 05:31:41;;;;;;;42.80;29.23;;;10.90;99.90;;;;;;5054817;28;20447;-88
2021/10/08 05:34:09;;;;;;;44.57;30.33;;;10.90;99.90;;;;;;5044918;28;20505;-87
2021/10/08 05:36:36;;;;;;;48.83;31.53;;;11.00;99.90;;;;;;5048632;28;20501;-88
2021/10/08 05:39:02;;;;;;;50.97;31.93;;;11.00;99.90;;;;;;5043141;28;20459;-88
2021/10/08 05:41:29;;;;;;;54.30;32.00;;;10.90;99.90;;;;;;5040177;28;20995;-88
2021/10/08 05:43:56;;;;;;;44.03;30.37;;;11.00;99.90;;;;;;5041041;28;20517;-86
2021/10/08 05:46:22;;;;;;;56.43;32.67;;;10.90;99.90;;;;;;5038761;28;20486;-86
2021/10/08 05:48:49;;;;;;;43.40;31.40;;;10.90;99.90;;;;;;5037307;28;20458;-86
2021/10/08 05:51:17;;;;;;;46.83;30.07;;;10.90;99.90;;;;;;5038465;28;20414;-86
2021/10/08 05:53:44;;;;;;;43.93;31.80;;;10.80;99.90;;;;;;5038812;28;20470;-86
2021/10/08 05:56:10;;;;;;;54.13;30.00;;;10.80;99.90;;;;;;5038796;28;20617;-87
2021/10/08 05:58:37;;;;;;;48.47;30.57;;;10.90;99.90;;;;;;5038900;28;20425;-87
2021/10/08 06:01:04;;;;;;;44.23;30.90;;;10.90;99.90;;;;;;5038768;28;20509;-87
2021/10/08 06:03:30;;;;;;;44.00;30.43;;;10.80;99.90;;;;;;5037238;28;20525;-87
2021/10/08 06:05:57;;;;;;;50.33;30.60;;;10.80;99.90;;;;;;5037798;28;20447;-87
2021/10/08 06:08:25;;;;;;;43.97;30.30;;;10.90;99.90;;;;;;5038567;28;20962;-86
2021/10/08 06:10:52;;;;;;;44.23;31.13;;;11.00;99.90;;;;;;5040250;28;20436;-86
2021/10/08 06:13:18;;;;;;;43.27;29.33;;;11.10;99.90;;;;;;5040684;28;20968;-86
2021/10/08 06:15:45;;;;;;;39.83;29.07;;;11.10;99.90;;;;;;5040596;28;20942;-87
2021/10/08 06:18:12;;;;;;;46.83;32.07;;;11.00;99.90;;;;;;5041006;28;20449;-87
2021/10/08 06:20:38;;;;;;;44.80;28.27;;;11.10;99.90;;;;;;5044246;28;20852;-86
2021/10/08 06:23:05;;;;;;;46.67;30.00;;;11.10;99.90;;;;;;5058012;28;20443;-87
2021/10/08 06:25:33;;;;;;;50.13;32.80;;;11.10;99.90;;;;;;5055535;28;20952;-88
2021/10/08 06:27:59;;;;;;;41.97;28.97;;;11.10;99.90;;;;;;5058629;28;20492;-89
2021/10/08 06:30:26;;;;;;;39.47;26.70;;;11.00;99.90;;;;;;5058678;28;20431;-87
2021/10/08 06:32:53;;;;;;;46.63;29.87;;;11.10;99.90;;;;;;5058344;28;20469;-87
2021/10/08 06:35:20;;;;;;;48.13;29.83;;;11.00;99.90;;;;;;5057990;28;20482;-87
2021/10/08 06:37:47;;;;;;;38.00;27.77;;;11.10;99.90;;;;;;5054549;28;20487;-86
2021/10/08 06:40:14;;;;;;;42.10;27.73;;;11.20;99.90;;;;;;5039145;28;20454;-86
2021/10/08 06:42:42;;;;;;;40.13;27.00;;;11.20;99.90;;;;;;5042132;28;20455;-86
2021/10/08 06:45:09;;;;;;;43.97;27.53;;;11.20;99.90;;;;;;5046170;28;20474;-86
2021/10/08 06:47:36;;;;;;;37.43;28.23;;;11.30;99.90;;;;;;5046815;28;20446;-87
2021/10/08 06:50:04;;;;;;;41.37;28.57;;;11.30;99.90;;;;;;5039050;28;20508;-86
2021/10/08 06:52:31;;;;;;;39.53;28.10;;;11.40;99.90;;;;;;5038246;28;20552;-86
2021/10/08 06:54:57;;;;;;;43.17;28.70;;;11.30;99.90;;;;;;5038188;28;20447;-87
2021/10/08 06:57:24;;;;;;;45.33;31.03;;;11.40;99.90;;;;;;5044462;28;20482;-87
2021/10/08 06:59:52;;;;;;;36.13;25.20;;;11.50;99.90;;;;;;5050367;28;20466;-88
2021/10/08 07:02:18;;;;;;;40.67;26.90;;;11.50;99.90;;;;;;5056200;28;20467;-86
2021/10/08 07:04:45;;;;;;;35.10;25.37;;;11.50;99.90;;;;;;5047819;28;20458;-86
2021/10/08 07:07:12;;;;;;;38.07;27.50;;;11.50;99.90;;;;;;5043349;28;20849;-86
2021/10/08 07:09:38;;;;;;;37.50;27.57;;;11.60;99.90;;;;;;5060478;28;20435;-86
2021/10/08 07:12:05;;;;;;;36.13;28.57;;;11.60;99.90;;;;;;5061138;28;20522;-87
2021/10/08 07:14:32;;;;;;;37.37;26.40;;;11.70;99.90;;;;;;5059067;28;20445;-86
2021/10/08 07:17:00;;;;;;;32.13;24.50;;;11.70;99.90;;;;;;5059441;28;20479;-86
2021/10/08 07:19:28;;;;;;;37.27;25.80;;;11.70;99.90;;;;;;5061866;28;20451;-85
2021/10/08 07:21:56;;;;;;;30.97;25.30;;;11.70;99.90;;;;;;5061904;28;20555;-85
2021/10/08 07:24:22;;;;;;;32.80;25.33;;;11.60;99.90;;;;;;5050537;28;20456;-85
2021/10/08 07:26:51;;;;;;;35.43;26.13;;;11.60;99.90;;;;;;5042670;28;20485;-86
2021/10/08 07:29:18;;;;;;;43.60;31.37;;;11.80;99.90;;;;;;5041891;28;20990;-86
2021/10/08 07:31:45;;;;;;;34.37;25.80;;;11.90;99.90;;;;;;5041133;28;20450;-87
2021/10/08 07:44:36;;;;;;;33.73;25.57;;;12.00;99.90;;;;;;5071565;22;20502;-87
2021/10/08 07:47:03;;;;;;;35.03;26.63;;;11.90;99.90;;;;;;5055718;28;20439;-87
2021/10/08 07:49:29;;;;;;;31.17;25.20;;;11.90;99.90;;;;;;5055536;28;20447;-88
2021/10/08 07:51:56;;;;;;;31.83;23.77;;;12.00;99.90;;;;;;5043714;28;20958;-87
2021/10/08 07:54:23;;;;;;;34.20;24.00;;;11.90;99.90;;;;;;5056132;28;20521;-87
2021/10/08 07:56:49;;;;;;;36.70;23.20;;;12.00;99.90;;;;;;5056125;28;20483;-86
2021/10/08 07:59:16;;;;;;;32.37;23.80;;;12.00;99.90;;;;;;5048226;28;20450;-87
2021/10/08 08:01:46;;;;;;;39.30;25.30;;;11.90;99.90;;;;;;5039892;28;20486;-87
2021/10/08 08:04:12;;;;;;;33.40;24.10;;;12.00;99.90;;;;;;5039412;28;20536;-87
2021/10/08 08:06:39;;;;;;;44.03;28.40;;;11.90;99.90;;;;;;5040288;28;20883;-87
2021/10/08 08:09:05;;;;;;;34.37;25.10;;;11.90;99.90;;;;;;5039284;28;20516;-87
2021/10/08 08:11:32;;;;;;;34.27;23.80;;;12.10;99.90;;;;;;5038527;28;20486;-87
2021/10/08 08:13:59;;;;;;;36.53;25.77;;;12.10;99.90;;;;;;5040002;28;20493;-87
2021/10/08 08:16:25;;;;;;;31.83;24.53;;;12.00;99.90;;;;;;5040942;28;20482;-87
2021/10/08 08:18:53;;;;;;;33.13;24.23;;;12.20;99.90;;;;;;5044088;28;20442;-87
2021/10/08 08:21:21;;;;;;;36.60;25.23;;;12.30;99.90;;;;;;5044194;28;20856;-87
2021/10/08 08:23:47;;;;;;;34.70;26.30;;;12.40;99.90;;;;;;5039981;28;20467;-87
2021/10/08 08:26:14;;;;;;;40.83;24.33;;;12.50;99.90;;;;;;5039440;28;20449;-87
2021/10/08 08:28:41;;;;;;;41.07;27.13;;;12.60;99.90;;;;;;5040753;28;20477;-87
2021/10/08 08:31:08;;;;;;;35.83;25.27;;;12.60;99.90;;;;;;5042022;28;20455;-87
2021/10/08 08:33:35;;;;;;;32.80;24.17;;;12.50;99.90;;;;;;5048100;28;20533;-86
2021/10/08 08:36:04;;;;;;;33.47;25.73;;;12.60;99.90;;;;;;5040695;28;20459;-86
2021/10/08 08:38:31;;;;;;;37.47;27.10;;;12.70;99.90;;;;;;5039485;28;20536;-86
2021/10/08 08:40:59;;;;;;;33.50;23.37;;;12.80;99.90;;;;;;5039331;28;20501;-87
2021/10/08 08:43:28;;;;;;;31.90;23.77;;;13.00;99.90;;;;;;5038865;28;20475;-86
2021/10/08 08:45:55;;;;;;;41.07;26.20;;;12.90;99.90;;;;;;5041170;28;20459;-86
2021/10/08 08:48:21;;;;;;;34.73;22.73;;;12.90;99.90;;;;;;5042098;28;20447;-86
2021/10/08 08:50:49;;;;;;;31.87;23.20;;;12.90;99.90;;;;;;5047916;28;20443;-86
2021/10/08 08:53:21;;;;;;;32.27;23.00;;;13.10;99.90;;;;;;5053716;28;20561;-86
2021/10/08 08:55:48;;;;;;;33.00;21.93;;;13.30;99.90;;;;;;5054878;28;20518;-85
2021/10/08 08:58:18;;;;;;;30.70;22.80;;;13.30;99.90;;;;;;5041018;28;20513;-86
2021/10/08 09:00:46;;;;;;;29.40;20.67;;;13.50;99.90;;;;;;5041237;28;20443;-87
2021/10/08 09:03:15;;;;;;;28.80;19.93;;;13.50;99.90;;;;;;5038719;28;20525;-87
2021/10/08 09:05:48;;;;;;;30.60;20.47;;;13.60;99.90;;;;;;5038185;28;20946;-86
2021/10/08 09:08:15;;;;;;;21.13;16.00;;;13.70;99.90;;;;;;5040194;28;20443;-86
2021/10/08 09:10:46;;;;;;;23.63;17.97;;;13.70;99.90;;;;;;5058293;28;20458;-84
2021/10/08 09:13:14;;;;;;;20.93;15.17;;;13.80;99.90;;;;;;5059428;28;20475;-83
2021/10/08 09:15:49;;;;;;;22.33;16.67;;;13.80;99.90;;;;;;5059439;28;20439;-84
2021/10/08 09:18:17;;;;;;;37.77;17.13;;;13.90;99.90;;;;;;5059346;28;20489;-87
2021/10/08 09:21:06;;;;;;;20.17;15.17;;;13.90;99.90;;;;;;5059063;28;20470;-87
2021/10/08 09:23:34;;;;;;;22.87;15.30;;;13.90;99.90;;;;;;5049932;28;20466;-83
2021/10/08 09:26:05;;;;;;;21.57;13.70;;;14.00;99.90;;;;;;5059139;28;20419;-86
2021/10/08 09:28:32;;;;;;;23.87;16.90;;;14.00;99.90;;;;;;5048905;28;20470;-86
2021/10/08 09:30:58;;;;;;;24.10;14.10;;;14.10;99.90;;;;;;5039364;28;20473;-86
2021/10/08 09:33:29;;;;;;;16.57;13.57;;;14.20;99.90;;;;;;5040158;28;20451;-86
2021/10/08 09:35:59;;;;;;;18.80;12.67;;;14.30;99.90;;;;;;5039892;28;20431;-85
2021/10/08 09:38:26;;;;;;;19.00;14.00;;;14.30;99.90;;;;;;5041402;28;20525;-86
2021/10/08 09:40:57;;;;;;;13.70;12.30;;;14.40;99.90;;;;;;5041860;28;20447;-86
2021/10/08 09:43:30;;;;;;;19.57;13.30;;;14.40;99.90;;;;;;5040016;28;20471;-87
2021/10/08 09:45:57;;;;;;;26.17;11.83;;;14.50;99.90;;;;;;5054932;28;20450;-86
2021/10/08 09:48:25;;;;;;;13.63;12.13;;;14.40;99.90;;;;;;5057282;28;20435;-85
2021/10/08 09:51:04;;;;;;;18.37;10.80;;;14.50;99.90;;;;;;5057767;28;20470;-87
2021/10/08 09:53:33;;;;;;;15.33;11.20;;;14.50;99.90;;;;;;5057997;28;20478;-86
2021/10/08 09:56:00;;;;;;;19.67;11.60;;;14.50;99.90;;;;;;5055571;28;20447;-86
2021/10/08 09:58:30;;;;;;;18.67;11.27;;;14.50;99.90;;;;;;5055738;28;20544;-86
2021/10/08 10:01:04;;;;;;;14.30;9.87;;;14.60;99.90;;;;;;5046737;28;20451;-87
2021/10/08 10:03:32;;;;;;;14.13;9.60;;;14.60;99.90;;;;;;5039472;28;20471;-87
2021/10/08 10:06:00;;;;;;;13.77;9.77;;;14.60;99.90;;;;;;5039169;28;20447;-86
2021/10/08 10:08:26;;;;;;;18.13;9.27;;;14.60;99.90;;;;;;5037776;28;20443;-87
2021/10/08 10:11:06;;;;;;;19.53;9.67;;;14.70;99.90;;;;;;5039193;28;20466;-89
2021/10/08 10:13:45;;;;;;;19.00;9.97;;;14.70;99.90;;;;;;5039889;28;20463;-89
2021/10/08 10:16:14;;;;;;;18.80;10.10;;;14.90;99.90;;;;;;5038715;28;20443;-86
2021/10/08 10:19:09;;;;;;;20.70;11.20;;;14.10;99.90;;;;;;5039696;28;20487;-89
2021/10/08 10:21:42;;;;;;;19.13;9.80;;;15.30;99.90;;;;;;5039359;28;20414;-89
2021/10/08 10:24:26;;;;;;;14.27;11.03;;;14.90;99.90;;;;;;5039973;28;20502;-89
2021/10/08 10:27:04;;;;;;;22.63;11.47;;;15.00;99.90;;;;;;5040994;28;20504;-90
2021/10/08 10:29:45;;;;;;;17.27;9.77;;;14.90;99.90;;;;;;5041020;28;20446;-90
2021/10/08 10:35:31;;;;;;;17.20;10.93;;;12.80;99.90;;;;;;5057050;28;20431;-89
2021/10/08 10:42:38;;;;;;;26.33;10.63;;;14.80;99.90;;;;;;5000865;28;20426;-89
2021/10/08 11:38:25;;;;;;;16.47;10.03;;;16.00;99.90;;;;;;5042596;28;20458;-88
2021/10/08 11:40:55;;;;;;;21.83;10.50;;;16.20;99.90;;;;;;5044071;28;20491;-90
2021/10/08 11:43:30;;;;;;;15.80;9.90;;;16.10;99.90;;;;;;5054387;28;20467;-89
2021/10/08 11:46:02;;;;;;;10.60;9.40;;;16.50;99.90;;;;;;5047898;28;20446;-90
2021/10/08 11:48:39;;;;;;;15.80;10.00;;;15.90;99.90;;;;;;5057080;22;20521;-86
2021/10/08 11:51:09;;;;;;;12.47;9.27;;;16.20;99.90;;;;;;5041800;28;20457;-86
2021/10/08 11:53:45;;;;;;;11.80;8.43;;;16.10;99.90;;;;;;5042555;28;20408;-86
2021/10/08 11:56:22;;;;;;;13.50;8.90;;;15.90;99.90;;;;;;5043057;28;20553;-86
2021/10/08 11:58:49;;;;;;;14.10;8.57;;;16.90;99.90;;;;;;5046155;28;20486;-85
2021/10/08 12:01:20;;;;;;;13.03;8.77;;;15.80;99.90;;;;;;5046969;28;20450;-84
2021/10/08 12:03:47;;;;;;;12.10;8.60;;;15.80;99.90;;;;;;5043157;28;20466;-84
2021/10/08 12:06:21;;;;;;;19.40;10.80;;;16.40;99.90;;;;;;5053305;28;20447;-84
2021/10/08 12:08:52;;;;;;;13.77;9.00;;;16.50;99.90;;;;;;5047376;28;20555;-85
2021/10/08 12:11:20;;;;;;;11.87;9.20;;;16.30;99.90;;;;;;5046454;28;20832;-85
2021/10/08 12:13:50;;;;;;;9.63;8.40;;;15.10;99.90;;;;;;5055090;28;20441;-83
2021/10/08 12:16:19;;;;;;;12.20;9.00;;;16.20;99.90;;;;;;5055666;28;20435;-86
2021/10/08 12:18:53;;;;;;;23.90;10.00;;;15.90;99.90;;;;;;5058050;28;20982;-86
2021/10/08 12:21:25;;;;;;;14.30;8.60;;;16.10;99.90;;;;;;5044149;28;20481;-85
2021/10/08 12:24:04;;;;;;;12.57;8.40;;;15.90;99.90;;;;;;5043116;28;20431;-86
2021/10/08 12:27:00;;;;;;;14.77;8.50;;;15.90;99.90;;;;;;5047348;28;20447;-85
2021/10/08 12:29:45;;;;;;;14.57;8.50;;;15.90;99.90;;;;;;5059112;28;20478;-85
2021/10/08 12:32:38;;;;;;;20.47;10.73;;;16.00;99.90;;;;;;5059356;28;20462;-85
2021/10/08 12:35:40;;;;;;;23.20;9.30;;;17.90;99.90;;;;;;5059207;28;20447;-85
2021/10/08 12:38:25;;;;;;;17.23;9.87;;;16.10;99.90;;;;;;5055052;28;20465;-86
2021/10/08 12:41:33;;;;;;;16.50;9.57;;;15.90;99.90;;;;;;5057936;28;20451;-86
2021/10/08 12:47:23;;;;;;;25.30;9.53;;;16.10;99.90;;;;;;5009178;28;20511;-86
2021/10/08 12:52:40;;;;;;;14.00;9.27;;;16.00;99.90;;;;;;5047020;28;20455;-85
2021/10/08 12:55:14;;;;;;;19.40;10.00;;;16.30;99.90;;;;;;5046749;28;20512;-85
2021/10/08 12:58:20;;;;;;;22.17;10.23;;;15.80;99.90;;;;;;5045195;28;20477;-86
2021/10/08 13:00:52;;;;;;;14.07;9.30;;;16.30;99.90;;;;;;5035150;28;20462;-85
2021/10/08 13:03:33;;;;;;;18.00;9.23;;;15.90;99.90;;;;;;5043350;28;20490;-86
2021/10/08 13:06:00;;;;;;;22.40;10.93;;;;;;;;;;5041650;28;20434;-86
2021/10/08 13:08:36;;;;;;;22.43;9.47;;;15.80;99.90;;;;;;5042183;28;20462;-86
2021/10/08 13:17:59;;;;;;;17.40;11.87;;;16.00;99.90;;;;;;5042563;28;20514;-89
2021/10/08 13:20:36;;;;;;;15.17;8.70;;;17.00;99.90;;;;;;5043382;28;20458;-90
2021/10/08 13:29:07;;;;;;;13.60;9.93;;;16.00;99.90;;;;;;4976852;28;20450;-88
2021/10/08 13:35:25;;;;;;;15.10;9.90;;;15.50;99.90;;;;;;5036679;28;20447;-86
2021/10/08 13:38:03;;;;;;;18.30;11.90;;;16.00;99.90;;;;;;5032813;28;20504;-86
2021/10/08 13:40:50;;;;;;;12.63;10.27;;;16.00;99.90;;;;;;5045348;28;20485;-86
2021/10/08 13:43:40;;;;;;;17.27;10.70;;;16.40;99.90;;;;;;5023666;28;20455;-87
2021/10/08 13:46:17;;;;;;;17.73;10.30;;;16.50;99.90;;;;;;5041273;28;20796;-86
2021/10/08 13:48:53;;;;;;;25.17;10.53;;;16.10;99.90;;;;;;5036943;28;20451;-86
2021/10/08 13:51:35;;;;;;;12.57;11.20;;;;;;;;;;5036433;28;20412;-87
2021/10/08 14:00:47;;;;;;;;;;;;;;;;;;;;;
2021/10/08 14:17:36;;;;;;;14.53;9.70;;;15.00;99.90;;;;;;4959626;28;20447;-87
2021/10/08 14:27:12;;;;;;;18.30;10.33;;;15.70;99.90;;;;;;5035269;28;20427;-86
2021/10/08 14:30:23;;;;;;;19.60;10.40;;;15.90;99.90;;;;;;5033804;22;20518;-87
2021/10/08 15:10:31;;;;;;;;;;;;;;;;;;;;;
2021/10/08 15:22:02;;;;;;;24.70;13.47;;;15.30;99.90;;;;;;5020252;28;20467;-90
2021/10/08 15:24:32;;;;;;;16.80;12.70;;;16.90;99.90;;;;;;5024281;28;20907;-85
2021/10/08 15:30:11;;;;;;;17.13;11.00;;;15.20;99.90;;;;;;5020071;28;20456;-86
2021/10/08 15:33:00;;;;;;;21.73;13.20;;;16.50;99.90;;;;;;5026238;28;20428;-87
2021/10/08 15:35:30;;;;;;;22.23;12.90;;;;;;;;;;5025877;28;20440;-86
2021/10/08 21:26:52;;;;;;;16.70;10.87;;;10.60;99.90;;;;;;4009981;27;20473;-89
2021/10/08 21:32:06;;;;;;;16.60;10.50;;;10.80;99.90;;;;;;4958778;28;20479;-87
2021/10/08 21:34:58;;;;;;;13.23;9.30;;;10.60;99.90;;;;;;4961291;28;20489;-89
2021/10/08 21:38:05;;;;;;;13.47;10.77;;;10.40;99.90;;;;;;4960741;28;20451;-89
2021/10/08 21:40:51;;;;;;;16.33;11.20;;;10.30;99.90;;;;;;4961003;28;20538;-87
2021/10/08 21:43:42;;;;;;;19.03;10.30;;;10.40;99.90;;;;;;4961538;28;20441;-87
2021/10/08 21:46:15;;;;;;;14.23;10.27;;;9.50;99.90;;;;;;4959963;29;20446;-88
2021/10/08 21:48:41;;;;;;;17.30;10.33;;;10.40;99.90;;;;;;4957245;29;20459;-86
2021/10/08 21:51:08;;;;;;;19.33;11.43;;;10.40;99.90;;;;;;4957823;28;20487;-87
2021/10/08 21:53:37;;;;;;;27.10;10.90;;;10.40;99.90;;;;;;4960453;29;20463;-85
2021/10/08 21:56:07;;;;;;;16.87;10.53;;;10.30;99.90;;;;;;4958559;28;20443;-90
2021/10/08 21:58:35;;;;;;;14.10;9.67;;;10.30;99.90;;;;;;4960084;28;20449;-86
2021/10/08 22:01:17;;;;;;;12.50;9.47;;;10.00;99.90;;;;;;4961142;28;20439;-86
2021/10/08 22:03:44;;;;;;;19.30;9.80;;;10.30;99.90;;;;;;4961138;28;20470;-84